sensor_id;sensor_type;location;lat;lon;timestamp;pressure;altitude;pressure_sealevel;temperature;humidity
33265;BME280;31404;53.974;-1.086;2022-11-20T00:00:41;100962.00;;;4.87;99.05
33265;BME280;31404;53.974;-1.086;2022-11-20T00:05:40;100962.79;;;5.42;92.41
33265;BME280;31404;53.974;-1.086;2022-11-20T00:10:39;100964.23;;;6.18;87.62
33265;BME280;31404;53.974;-1.086;2022-11-20T00:15:41;100952.89;;;6.68;86.56
33265;BME280;31404;53.974;-1.086;2022-11-20T00:20:39;100950.60;;;5.95;88.04
33265;BME280;31404;53.974;-1.086;2022-11-20T00:25:39;100938.10;;;5.91;89.36
33265;BME280;31404;53.974;-1.086;2022-11-20T00:30:40;100933.20;;;4.87;96.89
33265;BME280;31404;53.974;-1.086;2022-11-20T00:35:39;100930.22;;;5.14;96.17
33265;BME280;31404;53.974;-1.086;2022-11-20T00:40:39;100927.84;;;4.97;96.41
33265;BME280;31404;53.974;-1.086;2022-11-20T00:45:40;100930.42;;;6.11;90.28
33265;BME280;31404;53.974;-1.086;2022-11-20T00:50:41;100913.80;;;4.15;97.21
33265;BME280;31404;53.974;-1.086;2022-11-20T00:55:38;100905.01;;;5.43;93.68
33265;BME280;31404;53.974;-1.086;2022-11-20T01:00:39;100904.29;;;3.17;100.00
33265;BME280;31404;53.974;-1.086;2022-11-20T01:05:39;100903.35;;;3.33;100.00
33265;BME280;31404;53.974;-1.086;2022-11-20T01:10:39;100892.16;;;3.41;100.00
33265;BME280;31404;53.974;-1.086;2022-11-20T01:15:40;100887.74;;;3.62;100.00
33265;BME280;31404;53.974;-1.086;2022-11-20T01:20:39;100871.91;;;4.86;99.58
33265;BME280;31404;53.974;-1.086;2022-11-20T01:25:39;100856.82;;;3.41;100.00
33265;BME280;31404;53.974;-1.086;2022-11-20T01:30:39;100844.36;;;3.67;100.00
33265;BME280;31404;53.974;-1.086;2022-11-20T01:35:39;100832.38;;;4.93;99.60
33265;BME280;31404;53.974;-1.086;2022-11-20T01:40:39;100828.09;;;4.92;100.00
33265;BME280;31404;53.974;-1.086;2022-11-20T01:50:40;100822.62;;;3.95;100.00
33265;BME280;31404;53.974;-1.086;2022-11-20T01:55:43;100809.34;;;3.96;100.00
33265;BME280;31404;53.974;-1.086;2022-11-20T02:00:39;100799.08;;;4.30;100.00
33265;BME280;31404;53.974;-1.086;2022-11-20T02:10:39;100789.74;;;5.28;98.15
33265;BME280;31404;53.974;-1.086;2022-11-20T02:15:40;100781.66;;;5.47;97.33
33265;BME280;31404;53.974;-1.086;2022-11-20T02:20:40;100778.70;;;3.67;100.00
33265;BME280;31404;53.974;-1.086;2022-11-20T02:25:41;100775.09;;;4.93;99.44
33265;BME280;31404;53.974;-1.086;2022-11-20T02:30:39;100762.74;;;4.39;100.00
33265;BME280;31404;53.974;-1.086;2022-11-20T02:35:42;100739.67;;;5.49;97.38
33265;BME280;31404;53.974;-1.086;2022-11-20T02:40:40;100732.35;;;4.79;96.28
33265;BME280;31404;53.974;-1.086;2022-11-20T02:45:40;100714.45;;;6.15;89.77
33265;BME280;31404;53.974;-1.086;2022-11-20T02:50:40;100705.70;;;5.31;93.74
33265;BME280;31404;53.974;-1.086;2022-11-20T02:55:39;100696.86;;;6.29;87.49
33265;BME280;31404;53.974;-1.086;2022-11-20T03:00:39;100688.85;;;4.91;94.55
33265;BME280;31404;53.974;-1.086;2022-11-20T03:05:39;100675.97;;;5.13;94.66
33265;BME280;31404;53.974;-1.086;2022-11-20T03:10:39;100680.88;;;3.71;100.00
33265;BME280;31404;53.974;-1.086;2022-11-20T03:15:41;100665.35;;;5.16;96.56
33265;BME280;31404;53.974;-1.086;2022-11-20T03:20:39;100661.27;;;4.43;97.11
33265;BME280;31404;53.974;-1.086;2022-11-20T03:25:39;100657.06;;;5.50;93.40
33265;BME280;31404;53.974;-1.086;2022-11-20T03:30:40;100648.11;;;6.02;91.94
33265;BME280;31404;53.974;-1.086;2022-11-20T03:35:39;100632.45;;;5.13;97.19
33265;BME280;31404;53.974;-1.086;2022-11-20T03:40:38;100616.37;;;6.05;90.13
33265;BME280;31404;53.974;-1.086;2022-11-20T03:45:40;100613.93;;;5.15;96.71
33265;BME280;31404;53.974;-1.086;2022-11-20T03:50:39;100604.24;;;5.41;95.03
33265;BME280;31404;53.974;-1.086;2022-11-20T03:55:39;100595.21;;;4.73;100.00
33265;BME280;31404;53.974;-1.086;2022-11-20T04:00:39;100589.23;;;4.52;100.00
33265;BME280;31404;53.974;-1.086;2022-11-20T04:05:39;100581.74;;;3.46;100.00
33265;BME280;31404;53.974;-1.086;2022-11-20T04:10:39;100571.54;;;4.42;100.00
33265;BME280;31404;53.974;-1.086;2022-11-20T04:15:39;100573.25;;;3.54;100.00
33265;BME280;31404;53.974;-1.086;2022-11-20T04:20:39;100565.51;;;3.93;100.00
33265;BME280;31404;53.974;-1.086;2022-11-20T04:25:40;100553.37;;;4.79;100.00
33265;BME280;31404;53.974;-1.086;2022-11-20T04:30:39;100545.86;;;4.25;100.00
33265;BME280;31404;53.974;-1.086;2022-11-20T04:35:39;100550.70;;;4.76;100.00
33265;BME280;31404;53.974;-1.086;2022-11-20T04:40:39;100532.40;;;6.12;98.91
33265;BME280;31404;53.974;-1.086;2022-11-20T04:45:40;100529.31;;;4.71;100.00
33265;BME280;31404;53.974;-1.086;2022-11-20T04:50:40;100518.17;;;5.05;100.00
33265;BME280;31404;53.974;-1.086;2022-11-20T04:55:40;100509.48;;;5.35;100.00
33265;BME280;31404;53.974;-1.086;2022-11-20T05:00:39;100504.44;;;3.99;100.00
33265;BME280;31404;53.974;-1.086;2022-11-20T05:05:39;100501.24;;;3.85;100.00
33265;BME280;31404;53.974;-1.086;2022-11-20T05:10:39;100490.36;;;4.37;100.00
33265;BME280;31404;53.974;-1.086;2022-11-20T05:15:40;100487.28;;;4.36;100.00
33265;BME280;31404;53.974;-1.086;2022-11-20T05:20:39;100493.03;;;4.12;100.00
33265;BME280;31404;53.974;-1.086;2022-11-20T05:25:39;100497.39;;;5.61;100.00
33265;BME280;31404;53.974;-1.086;2022-11-20T05:30:40;100522.67;;;3.34;100.00
33265;BME280;31404;53.974;-1.086;2022-11-20T05:35:39;100512.63;;;4.34;100.00
33265;BME280;31404;53.974;-1.086;2022-11-20T05:40:39;100502.97;;;4.61;100.00
33265;BME280;31404;53.974;-1.086;2022-11-20T05:45:39;100489.74;;;5.21;100.00
33265;BME280;31404;53.974;-1.086;2022-11-20T05:50:39;100483.86;;;4.55;100.00
33265;BME280;31404;53.974;-1.086;2022-11-20T05:55:39;100466.68;;;4.82;100.00
33265;BME280;31404;53.974;-1.086;2022-11-20T06:00:39;100455.76;;;5.28;100.00
33265;BME280;31404;53.974;-1.086;2022-11-20T06:05:39;100451.52;;;5.45;100.00
33265;BME280;31404;53.974;-1.086;2022-11-20T06:10:39;100447.71;;;6.50;98.23
33265;BME280;31404;53.974;-1.086;2022-11-20T06:15:40;100438.83;;;7.51;95.09
33265;BME280;31404;53.974;-1.086;2022-11-20T06:20:39;100440.00;;;7.13;97.14
33265;BME280;31404;53.974;-1.086;2022-11-20T06:25:43;100428.16;;;7.68;94.56
33265;BME280;31404;53.974;-1.086;2022-11-20T06:35:39;100415.95;;;5.96;100.00
33265;BME280;31404;53.974;-1.086;2022-11-20T06:40:40;100416.18;;;4.98;100.00
33265;BME280;31404;53.974;-1.086;2022-11-20T06:45:40;100411.18;;;4.48;100.00
33265;BME280;31404;53.974;-1.086;2022-11-20T06:50:39;100408.89;;;5.09;100.00
33265;BME280;31404;53.974;-1.086;2022-11-20T07:00:40;100395.54;;;5.64;100.00
33265;BME280;31404;53.974;-1.086;2022-11-20T07:05:39;100386.55;;;4.94;100.00
33265;BME280;31404;53.974;-1.086;2022-11-20T07:10:38;100395.37;;;3.22;100.00
33265;BME280;31404;53.974;-1.086;2022-11-20T07:15:40;100386.73;;;4.40;100.00
33265;BME280;31404;53.974;-1.086;2022-11-20T07:20:39;100386.47;;;4.19;100.00
33265;BME280;31404;53.974;-1.086;2022-11-20T07:25:40;100400.78;;;3.26;100.00
33265;BME280;31404;53.974;-1.086;2022-11-20T07:30:39;100394.16;;;5.32;100.00
33265;BME280;31404;53.974;-1.086;2022-11-20T07:35:39;100404.91;;;4.55;100.00
33265;BME280;31404;53.974;-1.086;2022-11-20T07:40:39;100403.17;;;5.92;100.00
33265;BME280;31404;53.974;-1.086;2022-11-20T07:45:40;100410.80;;;4.33;100.00
33265;BME280;31404;53.974;-1.086;2022-11-20T07:50:40;100424.19;;;6.21;100.00
33265;BME280;31404;53.974;-1.086;2022-11-20T07:55:41;100421.33;;;7.95;100.00
33265;BME280;31404;53.974;-1.086;2022-11-20T08:00:39;100424.36;;;7.82;98.91
33265;BME280;31404;53.974;-1.086;2022-11-20T08:05:39;100434.91;;;7.20;100.00
33265;BME280;31404;53.974;-1.086;2022-11-20T08:10:40;100431.14;;;7.97;98.06
33265;BME280;31404;53.974;-1.086;2022-11-20T08:15:40;100423.96;;;7.34;100.00
33265;BME280;31404;53.974;-1.086;2022-11-20T08:20:40;100413.89;;;6.35;100.00
33265;BME280;31404;53.974;-1.086;2022-11-20T08:25:40;100410.84;;;7.19;99.50
33265;BME280;31404;53.974;-1.086;2022-11-20T08:30:39;100401.93;;;7.30;99.19
33265;BME280;31404;53.974;-1.086;2022-11-20T08:35:39;100402.59;;;8.81;91.31
33265;BME280;31404;53.974;-1.086;2022-11-20T08:40:39;100401.67;;;8.93;92.60
33265;BME280;31404;53.974;-1.086;2022-11-20T08:45:40;100400.59;;;8.41;92.55
33265;BME280;31404;53.974;-1.086;2022-11-20T08:50:40;100406.60;;;8.79;90.14
33265;BME280;31404;53.974;-1.086;2022-11-20T08:55:39;100412.13;;;8.67;90.04
33265;BME280;31404;53.974;-1.086;2022-11-20T09:00:39;100409.33;;;7.87;94.80
33265;BME280;31404;53.974;-1.086;2022-11-20T09:05:39;100412.12;;;7.10;97.33
33265;BME280;31404;53.974;-1.086;2022-11-20T09:10:39;100427.82;;;7.47;98.17
33265;BME280;31404;53.974;-1.086;2022-11-20T09:15:40;100425.04;;;9.13;90.89
33265;BME280;31404;53.974;-1.086;2022-11-20T09:20:40;100437.24;;;8.42;92.93
33265;BME280;31404;53.974;-1.086;2022-11-20T09:25:40;100438.26;;;9.17;89.28
33265;BME280;31404;53.974;-1.086;2022-11-20T09:30:39;100446.00;;;9.11;90.17
33265;BME280;31404;53.974;-1.086;2022-11-20T09:35:39;100443.88;;;8.71;91.00
33265;BME280;31404;53.974;-1.086;2022-11-20T09:50:37;100444.16;;;9.13;89.59
33265;BME280;31404;53.974;-1.086;2022-11-20T09:55:39;100445.18;;;8.79;91.97
33265;BME280;31404;53.974;-1.086;2022-11-20T10:00:39;100442.18;;;9.92;87.58
33265;BME280;31404;53.974;-1.086;2022-11-20T10:25:43;100437.12;;;9.21;90.19
33265;BME280;31404;53.974;-1.086;2022-11-20T10:30:42;100424.82;;;9.49;90.56
33265;BME280;31404;53.974;-1.086;2022-11-20T10:40:43;100428.30;;;7.76;100.00
33265;BME280;31404;53.974;-1.086;2022-11-20T11:00:39;100420.22;;;7.31;100.00
33265;BME280;31404;53.974;-1.086;2022-11-20T11:15:42;100403.32;;;8.63;96.44
33265;BME280;31404;53.974;-1.086;2022-11-20T11:25:40;100423.63;;;6.29;100.00
33265;BME280;31404;53.974;-1.086;2022-11-20T11:40:40;100421.18;;;6.01;100.00
33265;BME280;31404;53.974;-1.086;2022-11-20T11:45:40;100410.10;;;8.36;100.00
33265;BME280;31404;53.974;-1.086;2022-11-20T11:55:43;100403.32;;;9.02;98.22
33265;BME280;31404;53.974;-1.086;2022-11-20T12:00:45;100402.06;;;8.65;95.69
33265;BME280;31404;53.974;-1.086;2022-11-20T12:05:43;100397.85;;;8.54;95.68
33265;BME280;31404;53.974;-1.086;2022-11-20T12:20:45;100365.04;;;9.68;88.10
33265;BME280;31404;53.974;-1.086;2022-11-20T12:30:46;100367.42;;;10.19;84.89
33265;BME280;31404;53.974;-1.086;2022-11-20T12:40:43;100373.86;;;8.33;92.92
33265;BME280;31404;53.974;-1.086;2022-11-20T13:25:40;100330.03;;;9.35;79.81
33265;BME280;31404;53.974;-1.086;2022-11-20T13:35:42;100354.82;;;10.20;77.52
33265;BME280;31404;53.974;-1.086;2022-11-20T13:45:39;100372.48;;;9.46;76.83
33265;BME280;31404;53.974;-1.086;2022-11-20T14:05:46;100400.50;;;7.20;89.58
33265;BME280;31404;53.974;-1.086;2022-11-20T14:10:39;100385.56;;;7.50;90.46
33265;BME280;31404;53.974;-1.086;2022-11-20T14:15:40;100380.47;;;8.24;86.98
33265;BME280;31404;53.974;-1.086;2022-11-20T14:20:39;100377.09;;;8.12;84.01
33265;BME280;31404;53.974;-1.086;2022-11-20T14:40:40;100393.78;;;7.93;85.03
33265;BME280;31404;53.974;-1.086;2022-11-20T14:45:39;100389.52;;;8.73;82.79
33265;BME280;31404;53.974;-1.086;2022-11-20T14:50:39;100392.35;;;9.38;79.26
33265;BME280;31404;53.974;-1.086;2022-11-20T14:55:39;100400.52;;;9.06;80.38
33265;BME280;31404;53.974;-1.086;2022-11-20T15:00:39;100401.09;;;8.57;83.25
33265;BME280;31404;53.974;-1.086;2022-11-20T15:20:40;100403.48;;;9.30;82.61
33265;BME280;31404;53.974;-1.086;2022-11-20T15:25:39;100404.02;;;9.15;81.89
33265;BME280;31404;53.974;-1.086;2022-11-20T15:30:39;100392.83;;;8.93;79.61
33265;BME280;31404;53.974;-1.086;2022-11-20T15:35:40;100405.25;;;8.47;83.79
33265;BME280;31404;53.974;-1.086;2022-11-20T15:40:39;100408.86;;;8.09;86.74
33265;BME280;31404;53.974;-1.086;2022-11-20T15:45:41;100424.06;;;6.43;92.64
33265;BME280;31404;53.974;-1.086;2022-11-20T15:55:39;100476.59;;;3.16;100.00
33265;BME280;31404;53.974;-1.086;2022-11-20T16:00:39;100480.50;;;4.18;100.00
33265;BME280;31404;53.974;-1.086;2022-11-20T16:05:39;100472.52;;;5.69;100.00
33265;BME280;31404;53.974;-1.086;2022-11-20T16:10:39;100482.63;;;5.41;100.00
33265;BME280;31404;53.974;-1.086;2022-11-20T16:15:34;100485.56;;;4.90;100.00
33265;BME280;31404;53.974;-1.086;2022-11-20T16:20:39;100493.21;;;4.63;100.00
33265;BME280;31404;53.974;-1.086;2022-11-20T16:25:40;100492.68;;;4.27;100.00
33265;BME280;31404;53.974;-1.086;2022-11-20T16:30:39;100502.03;;;3.16;100.00
33265;BME280;31404;53.974;-1.086;2022-11-20T16:35:39;100499.89;;;3.51;100.00
33265;BME280;31404;53.974;-1.086;2022-11-20T16:40:39;100493.65;;;4.98;100.00
33265;BME280;31404;53.974;-1.086;2022-11-20T16:45:41;100491.39;;;6.54;100.00
33265;BME280;31404;53.974;-1.086;2022-11-20T16:55:39;100482.83;;;8.34;90.47
33265;BME280;31404;53.974;-1.086;2022-11-20T17:00:40;100470.23;;;9.18;85.96
33265;BME280;31404;53.974;-1.086;2022-11-20T17:05:39;100479.75;;;8.80;87.47
33265;BME280;31404;53.974;-1.086;2022-11-20T17:10:39;100485.90;;;9.42;85.26
33265;BME280;31404;53.974;-1.086;2022-11-20T17:15:40;100487.64;;;9.69;82.02
33265;BME280;31404;53.974;-1.086;2022-11-20T17:20:41;100490.00;;;9.90;81.89
33265;BME280;31404;53.974;-1.086;2022-11-20T17:25:39;100503.95;;;7.90;90.94
33265;BME280;31404;53.974;-1.086;2022-11-20T17:30:39;100498.87;;;8.54;89.53
33265;BME280;31404;53.974;-1.086;2022-11-20T17:35:40;100470.58;;;9.86;82.83
33265;BME280;31404;53.974;-1.086;2022-11-20T17:40:40;100470.93;;;9.11;85.81
33265;BME280;31404;53.974;-1.086;2022-11-20T17:45:40;100507.99;;;6.60;96.81
33265;BME280;31404;53.974;-1.086;2022-11-20T17:50:40;100518.19;;;6.35;100.00
33265;BME280;31404;53.974;-1.086;2022-11-20T17:55:39;100527.59;;;5.48;100.00
33265;BME280;31404;53.974;-1.086;2022-11-20T18:00:39;100533.59;;;4.30;100.00
33265;BME280;31404;53.974;-1.086;2022-11-20T18:05:39;100533.93;;;5.12;100.00
33265;BME280;31404;53.974;-1.086;2022-11-20T18:10:39;100534.35;;;5.99;100.00
33265;BME280;31404;53.974;-1.086;2022-11-20T18:15:39;100526.23;;;6.21;100.00
33265;BME280;31404;53.974;-1.086;2022-11-20T18:20:39;100526.85;;;5.68;100.00
33265;BME280;31404;53.974;-1.086;2022-11-20T18:25:39;100518.20;;;5.96;100.00
33265;BME280;31404;53.974;-1.086;2022-11-20T18:30:39;100520.79;;;6.11;100.00
33265;BME280;31404;53.974;-1.086;2022-11-20T18:35:40;100517.52;;;7.59;91.68
33265;BME280;31404;53.974;-1.086;2022-11-20T18:40:39;100510.79;;;8.32;89.47
33265;BME280;31404;53.974;-1.086;2022-11-20T18:45:39;100524.37;;;6.83;94.08
33265;BME280;31404;53.974;-1.086;2022-11-20T18:50:40;100522.19;;;7.26;93.65
33265;BME280;31404;53.974;-1.086;2022-11-20T18:55:39;100509.99;;;7.97;88.11
33265;BME280;31404;53.974;-1.086;2022-11-20T19:00:39;100507.21;;;7.89;87.85
33265;BME280;31404;53.974;-1.086;2022-11-20T19:05:40;100517.96;;;7.64;91.82
33265;BME280;31404;53.974;-1.086;2022-11-20T19:10:39;100514.44;;;7.11;88.98
33265;BME280;31404;53.974;-1.086;2022-11-20T19:15:40;100497.65;;;8.66;83.64
33265;BME280;31404;53.974;-1.086;2022-11-20T19:20:39;100492.79;;;8.39;84.07
33265;BME280;31404;53.974;-1.086;2022-11-20T19:25:40;100491.00;;;8.83;81.29
33265;BME280;31404;53.974;-1.086;2022-11-20T19:30:40;100495.25;;;8.25;83.79
33265;BME280;31404;53.974;-1.086;2022-11-20T19:35:39;100504.96;;;8.74;81.38
33265;BME280;31404;53.974;-1.086;2022-11-20T19:40:39;100508.57;;;8.38;81.58
33265;BME280;31404;53.974;-1.086;2022-11-20T19:50:39;100508.99;;;7.70;83.87
33265;BME280;31404;53.974;-1.086;2022-11-20T19:55:39;100510.45;;;7.13;86.52
33265;BME280;31404;53.974;-1.086;2022-11-20T20:00:40;100511.96;;;7.32;86.05
33265;BME280;31404;53.974;-1.086;2022-11-20T20:05:40;100512.12;;;7.13;86.35
33265;BME280;31404;53.974;-1.086;2022-11-20T20:10:39;100504.74;;;7.58;84.53
33265;BME280;31404;53.974;-1.086;2022-11-20T20:15:41;100512.15;;;7.10;85.49
33265;BME280;31404;53.974;-1.086;2022-11-20T20:20:39;100504.97;;;7.48;83.34
33265;BME280;31404;53.974;-1.086;2022-11-20T20:25:39;100514.35;;;6.76;87.40
33265;BME280;31404;53.974;-1.086;2022-11-20T20:30:39;100513.52;;;5.96;91.89
33265;BME280;31404;53.974;-1.086;2022-11-20T20:35:40;100512.97;;;5.46;95.89
33265;BME280;31404;53.974;-1.086;2022-11-20T20:50:40;100515.31;;;5.62;92.88
33265;BME280;31404;53.974;-1.086;2022-11-20T20:55:39;100516.60;;;6.59;89.07
33265;BME280;31404;53.974;-1.086;2022-11-20T21:00:39;100516.49;;;5.48;95.33
33265;BME280;31404;53.974;-1.086;2022-11-20T21:05:39;100520.75;;;6.53;90.25
33265;BME280;31404;53.974;-1.086;2022-11-20T21:10:40;100516.82;;;7.15;85.19
33265;BME280;31404;53.974;-1.086;2022-11-20T21:15:41;100523.44;;;7.02;88.08
33265;BME280;31404;53.974;-1.086;2022-11-20T21:20:39;100519.93;;;6.11;89.76
33265;BME280;31404;53.974;-1.086;2022-11-20T21:25:40;100516.74;;;8.06;82.60
33265;BME280;31404;53.974;-1.086;2022-11-20T21:30:40;100510.32;;;8.85;78.08
33265;BME280;31404;53.974;-1.086;2022-11-20T21:35:39;100510.73;;;8.22;77.62
33265;BME280;31404;53.974;-1.086;2022-11-20T21:40:39;100496.57;;;7.71;83.05
33265;BME280;31404;53.974;-1.086;2022-11-20T21:45:39;100491.92;;;6.99;83.87
33265;BME280;31404;53.974;-1.086;2022-11-20T21:50:39;100495.68;;;7.78;81.96
33265;BME280;31404;53.974;-1.086;2022-11-20T21:55:40;100495.87;;;9.34;75.14
33265;BME280;31404;53.974;-1.086;2022-11-20T22:00:39;100509.22;;;9.51;73.44
33265;BME280;31404;53.974;-1.086;2022-11-20T22:05:39;100512.62;;;8.37;74.58
33265;BME280;31404;53.974;-1.086;2022-11-20T22:10:39;100516.60;;;7.46;79.10
33265;BME280;31404;53.974;-1.086;2022-11-20T22:15:40;100509.69;;;8.94;74.12
33265;BME280;31404;53.974;-1.086;2022-11-20T22:20:39;100508.35;;;8.47;74.05
33265;BME280;31404;53.974;-1.086;2022-11-20T22:25:39;100509.43;;;7.69;75.16
33265;BME280;31404;53.974;-1.086;2022-11-20T22:30:40;100498.85;;;7.98;75.82
33265;BME280;31404;53.974;-1.086;2022-11-20T22:35:40;100495.43;;;9.12;72.24
33265;BME280;31404;53.974;-1.086;2022-11-20T22:40:39;100498.31;;;8.68;73.92
33265;BME280;31404;53.974;-1.086;2022-11-20T22:45:38;100493.48;;;9.08;71.95
33265;BME280;31404;53.974;-1.086;2022-11-20T22:50:40;100489.92;;;8.77;73.14
33265;BME280;31404;53.974;-1.086;2022-11-20T22:55:39;100495.01;;;8.80;73.17
33265;BME280;31404;53.974;-1.086;2022-11-20T23:00:39;100482.57;;;9.28;71.73
33265;BME280;31404;53.974;-1.086;2022-11-20T23:05:39;100495.06;;;7.62;77.55
33265;BME280;31404;53.974;-1.086;2022-11-20T23:10:39;100495.97;;;8.93;72.86
33265;BME280;31404;53.974;-1.086;2022-11-20T23:15:40;100490.26;;;9.24;71.64
33265;BME280;31404;53.974;-1.086;2022-11-20T23:20:39;100494.42;;;8.58;78.76
33265;BME280;31404;53.974;-1.086;2022-11-20T23:25:39;100502.72;;;7.20;77.62
33265;BME280;31404;53.974;-1.086;2022-11-20T23:30:39;100492.05;;;8.67;73.34
33265;BME280;31404;53.974;-1.086;2022-11-20T23:35:39;100474.80;;;9.28;70.65
33265;BME280;31404;53.974;-1.086;2022-11-20T23:40:40;100487.61;;;8.31;72.62
33265;BME280;31404;53.974;-1.086;2022-11-20T23:45:39;100486.37;;;8.66;71.88
33265;BME280;31404;53.974;-1.086;2022-11-20T23:50:40;100477.93;;;7.97;72.80
